createdAt,value
2023-03-29T00:03:08.063Z,1001.86
2023-03-29T00:08:07.922Z,1001.74
2023-03-29T00:13:07.990Z,1001.58
2023-03-29T00:18:07.848Z,1001.49
2023-03-29T00:23:07.788Z,1001.39
2023-03-29T00:28:07.762Z,1001.41
2023-03-29T00:33:07.715Z,1001.36
2023-03-29T00:38:07.572Z,1001.31
2023-03-29T00:43:07.795Z,1001.41
2023-03-29T00:48:07.586Z,1001.31
2023-03-29T00:53:07.461Z,1001.28
2023-03-29T00:58:07.348Z,1001.20
2023-03-29T01:03:07.453Z,1001.21
2023-03-29T01:08:07.268Z,1001.14
2023-03-29T01:13:07.233Z,1001.03
2023-03-29T01:18:07.304Z,1001.00
2023-03-29T01:23:07.127Z,1000.99
2023-03-29T01:28:07.057Z,1000.93
2023-03-29T01:33:07.021Z,1000.76
2023-03-29T01:38:06.957Z,1000.79
2023-03-29T01:43:06.949Z,1000.73
2023-03-29T01:48:06.988Z,1000.61
2023-03-29T01:53:06.737Z,1000.68
2023-03-29T01:58:06.858Z,1000.50
2023-03-29T02:18:36.317Z,1000.44
2023-03-29T02:23:32.965Z,1000.31
2023-03-29T02:28:32.939Z,1000.32
2023-03-29T02:33:32.881Z,1000.36
2023-03-29T02:38:36.385Z,1000.31
2023-03-29T02:43:32.909Z,1000.21
2023-03-29T02:48:32.675Z,1000.14
2023-03-29T02:53:32.762Z,1000.10
2023-03-29T02:58:32.790Z,1000.16
2023-03-29T03:03:32.802Z,1000.13
2023-03-29T03:08:32.688Z,1000.14
2023-03-29T03:13:32.513Z,1000.04
2023-03-29T03:18:32.508Z,999.92
2023-03-29T03:23:32.402Z,999.97
2023-03-29T03:28:32.257Z,1000.06
2023-03-29T03:33:32.273Z,1000.06
2023-03-29T03:38:32.187Z,1000.01
2023-03-29T03:43:32.120Z,1000.02
2023-03-29T03:48:32.184Z,999.95
2023-03-29T03:53:32.054Z,999.93
2023-03-29T03:58:32.014Z,999.94
2023-03-29T04:03:32.035Z,999.91
2023-03-29T04:08:31.832Z,999.94
2023-03-29T04:13:31.795Z,999.93
2023-03-29T04:18:31.986Z,999.86
2023-03-29T04:23:31.874Z,999.72
2023-03-29T04:28:31.720Z,999.76
2023-03-29T04:33:31.599Z,999.72
2023-03-29T04:38:31.514Z,999.71
2023-03-29T04:43:31.529Z,999.73
2023-03-29T04:48:31.604Z,999.73
2023-03-29T04:53:31.400Z,999.73
2023-03-29T04:58:32.520Z,999.74
2023-03-29T05:03:31.231Z,999.67
2023-03-29T05:08:31.480Z,999.62
2023-03-29T05:13:31.267Z,999.77
2023-03-29T05:18:31.079Z,999.78
2023-03-29T05:23:31.013Z,999.74
2023-03-29T05:28:31.167Z,999.67
2023-03-29T05:33:30.938Z,999.60
2023-03-29T05:38:30.815Z,999.54
2023-03-29T05:43:30.852Z,999.44
2023-03-29T05:48:30.778Z,999.42
2023-03-29T05:53:30.776Z,999.46
2023-03-29T05:58:30.711Z,999.52
2023-03-29T06:03:30.712Z,999.49
2023-03-29T06:08:30.494Z,999.41
2023-03-29T06:13:30.485Z,999.41
2023-03-29T06:18:30.356Z,999.36
2023-03-29T06:23:30.344Z,999.42
2023-03-29T06:28:30.318Z,999.41
2023-03-29T06:33:30.211Z,999.48
2023-03-29T06:38:30.192Z,999.47
2023-03-29T06:43:30.193Z,999.45
2023-03-29T06:48:31.155Z,999.46
2023-03-29T06:53:30.040Z,999.50
2023-03-29T06:58:29.936Z,999.55
2023-03-29T07:03:29.884Z,999.59
2023-03-29T07:08:29.833Z,999.56
2023-03-29T07:13:29.790Z,999.62
2023-03-29T07:18:29.774Z,999.67
2023-03-29T07:23:29.736Z,999.65
2023-03-29T07:28:29.718Z,999.56
2023-03-29T07:33:29.654Z,999.62
2023-03-29T07:38:29.550Z,999.70
2023-03-29T07:43:29.513Z,999.70
2023-03-29T07:48:29.519Z,999.83
2023-03-29T07:53:29.419Z,999.80
2023-03-29T07:58:29.317Z,999.77
2023-03-29T08:03:29.353Z,999.80
2023-03-29T08:08:29.232Z,999.76
2023-03-29T08:13:30.140Z,999.75
2023-03-29T08:18:29.124Z,999.71
2023-03-29T08:23:29.072Z,999.69
2023-03-29T08:28:29.100Z,999.62
2023-03-29T08:33:28.942Z,999.57
2023-03-29T08:38:28.982Z,999.61
2023-03-29T08:43:28.852Z,999.63
2023-03-29T08:48:28.836Z,999.57
2023-03-29T08:53:28.710Z,999.56
2023-03-29T08:58:28.622Z,999.45
2023-03-29T09:03:28.694Z,999.48
2023-03-29T09:08:28.529Z,999.42
2023-03-29T09:13:28.478Z,999.43
2023-03-29T09:18:28.348Z,999.45
2023-03-29T09:23:28.421Z,999.47
2023-03-29T09:28:28.345Z,999.53
2023-03-29T09:33:28.214Z,999.48
2023-03-29T09:38:28.168Z,999.38
2023-03-29T09:43:28.113Z,999.37
2023-03-29T09:48:28.017Z,999.27
2023-03-29T09:53:28.040Z,999.25
2023-03-29T09:58:28.029Z,999.37
2023-03-29T10:03:27.892Z,999.19
2023-03-29T10:08:27.828Z,999.21
2023-03-29T10:13:27.836Z,999.15
2023-03-29T10:18:27.731Z,999.06
2023-03-29T10:23:27.646Z,998.94
2023-03-29T10:28:27.648Z,998.86
2023-03-29T10:33:27.543Z,999.02
2023-03-29T10:38:27.497Z,998.83
2023-03-29T10:43:27.462Z,998.66
2023-03-29T10:48:27.432Z,998.68
2023-03-29T10:53:27.275Z,998.56
2023-03-29T10:58:27.253Z,998.60
2023-03-29T11:03:27.453Z,998.62
2023-03-29T11:08:29.011Z,998.57
2023-03-29T11:13:27.087Z,998.54
2023-03-29T11:18:27.063Z,998.33
2023-03-29T11:23:26.976Z,998.38
2023-03-29T11:28:26.954Z,998.35
2023-03-29T11:33:26.904Z,998.28
2023-03-29T11:38:26.824Z,998.24
2023-03-29T11:43:26.819Z,998.11
2023-03-29T11:48:26.727Z,998.14
2023-03-29T11:53:26.704Z,998.01
2023-03-29T11:58:26.593Z,997.89
2023-03-29T12:03:26.592Z,997.85
2023-03-29T12:08:26.544Z,997.68
2023-03-29T12:13:26.464Z,997.68
2023-03-29T12:18:26.422Z,997.69
2023-03-29T12:23:26.381Z,997.64
2023-03-29T12:28:26.263Z,997.81
2023-03-29T12:33:26.231Z,997.64
2023-03-29T12:38:27.638Z,997.64
2023-03-29T12:43:26.141Z,997.59
2023-03-29T12:48:26.103Z,997.54
2023-03-29T12:53:25.991Z,997.61
2023-03-29T12:58:25.973Z,997.57
2023-03-29T13:03:25.918Z,997.54
2023-03-29T13:08:25.910Z,997.49
2023-03-29T13:13:25.788Z,997.39
2023-03-29T13:18:25.764Z,997.40
2023-03-29T13:23:25.654Z,997.35
2023-03-29T13:28:25.667Z,997.38
2023-03-29T13:33:25.550Z,997.29
2023-03-29T13:38:25.476Z,997.30
2023-03-29T13:43:25.494Z,997.33
2023-03-29T13:48:25.420Z,997.47
2023-03-29T13:53:25.375Z,997.46
2023-03-29T13:58:25.309Z,997.35
2023-03-29T14:03:25.246Z,997.22
2023-03-29T14:08:25.174Z,996.97
2023-03-29T14:13:25.172Z,996.80
2023-03-29T14:18:25.079Z,996.77
2023-03-29T14:23:25.032Z,996.76
2023-03-29T14:28:24.967Z,996.61
2023-03-29T14:33:24.918Z,996.59
2023-03-29T14:38:24.879Z,996.42
2023-03-29T14:43:24.822Z,996.51
2023-03-29T14:48:24.893Z,996.57
2023-03-29T14:53:24.696Z,996.55
2023-03-29T14:58:24.646Z,996.48
2023-03-29T15:03:24.649Z,996.50
2023-03-29T15:08:24.583Z,996.41
2023-03-29T15:13:24.827Z,996.31
2023-03-29T15:18:24.521Z,996.31
2023-03-29T15:23:24.449Z,996.19
2023-03-29T15:28:24.335Z,996.09
2023-03-29T15:33:24.526Z,996.04
2023-03-29T15:38:33.151Z,996.02
2023-03-29T15:43:25.194Z,995.83
2023-03-29T15:48:24.077Z,995.74
2023-03-29T15:53:24.139Z,995.70
2023-03-29T15:58:24.173Z,995.68
2023-03-29T16:03:24.073Z,995.56
2023-03-29T16:08:23.966Z,995.49
2023-03-29T16:13:23.845Z,995.56
2023-03-29T16:18:23.862Z,995.55
2023-03-29T16:23:23.803Z,995.41
2023-03-29T16:28:23.821Z,995.33
2023-03-29T16:33:23.576Z,995.28
2023-03-29T16:38:23.526Z,995.18
2023-03-29T16:43:23.521Z,995.15
2023-03-29T16:48:23.453Z,995.17
2023-03-29T16:53:23.437Z,995.03
2023-03-29T16:58:23.321Z,995.08
2023-03-29T17:03:23.278Z,995.06
2023-03-29T17:08:23.338Z,995.06
2023-03-29T17:13:23.174Z,995.06
2023-03-29T17:18:24.211Z,995.03
2023-03-29T17:23:23.087Z,994.98
2023-03-29T17:28:22.942Z,994.90
2023-03-29T17:33:22.997Z,994.99
2023-03-29T17:38:22.920Z,995.00
2023-03-29T17:43:22.950Z,994.94
2023-03-29T17:48:22.796Z,994.97
2023-03-29T17:53:22.712Z,994.92
2023-03-29T17:58:22.734Z,994.92
2023-03-29T18:03:22.909Z,994.82
2023-03-29T18:08:22.923Z,994.69
2023-03-29T18:13:23.695Z,994.64
2023-03-29T18:18:22.507Z,994.64
2023-03-29T18:23:22.592Z,994.54
2023-03-29T18:28:22.336Z,994.58
2023-03-29T18:33:22.445Z,994.57
2023-03-29T18:38:23.310Z,994.53
2023-03-29T18:43:22.290Z,994.56
2023-03-29T18:48:22.252Z,994.54
2023-03-29T18:53:22.120Z,994.51
2023-03-29T18:58:22.085Z,994.51
2023-03-29T19:03:22.103Z,994.46
2023-03-29T19:08:21.870Z,994.46
2023-03-29T19:13:21.952Z,994.41
2023-03-29T19:18:21.766Z,994.32
2023-03-29T19:23:21.753Z,994.28
2023-03-29T19:28:21.788Z,994.29
2023-03-29T19:33:21.674Z,994.24
2023-03-29T19:38:21.629Z,994.12
2023-03-29T19:43:21.486Z,994.12
2023-03-29T19:48:23.337Z,994.14
2023-03-29T19:53:21.522Z,994.15
2023-03-29T19:58:21.352Z,994.00
2023-03-29T20:03:22.401Z,993.97
2023-03-29T20:08:21.397Z,993.84
2023-03-29T20:13:31.560Z,993.77
2023-03-29T20:18:22.117Z,993.75
2023-03-29T20:23:21.065Z,993.87
2023-03-29T20:28:21.197Z,993.75
2023-03-29T20:33:21.046Z,993.71
2023-03-29T20:38:21.064Z,993.71
2023-03-29T20:43:29.648Z,993.62
2023-03-29T20:48:20.781Z,993.64
2023-03-29T20:53:20.880Z,993.64
2023-03-29T20:58:20.632Z,993.47
2023-03-29T21:03:20.647Z,993.39
2023-03-29T21:08:20.471Z,993.38
2023-03-29T21:13:20.430Z,993.27
2023-03-29T21:18:20.410Z,993.21
2023-03-29T21:23:20.320Z,993.15
2023-03-29T21:28:20.260Z,993.11
2023-03-29T21:33:20.342Z,992.99
2023-03-29T21:38:20.191Z,992.81
2023-03-29T21:43:20.201Z,992.70
2023-03-29T21:48:20.106Z,992.82
2023-03-29T21:53:20.015Z,992.71
2023-03-29T21:58:20.025Z,992.58
2023-03-29T22:03:19.910Z,992.51
2023-03-29T22:08:19.919Z,992.42
2023-03-29T22:13:19.781Z,992.65
2023-03-29T22:18:19.719Z,992.57
2023-03-29T22:23:19.683Z,992.65
2023-03-29T22:28:19.685Z,992.60
2023-03-29T22:33:19.579Z,992.48
2023-03-29T22:38:19.507Z,992.53
2023-03-29T22:43:19.445Z,992.45
2023-03-29T22:48:19.477Z,992.27
2023-03-29T22:53:19.353Z,992.28
2023-03-29T22:58:19.317Z,992.17
2023-03-29T23:03:19.277Z,992.33
2023-03-29T23:08:19.196Z,992.21
2023-03-29T23:13:19.115Z,992.16
2023-03-29T23:18:19.164Z,992.24
2023-03-29T23:23:19.003Z,992.10
2023-03-29T23:28:18.937Z,992.09
2023-03-29T23:33:18.932Z,992.18
2023-03-29T23:38:18.825Z,992.15
2023-03-29T23:43:18.817Z,992.11
2023-03-29T23:48:18.722Z,992.06
2023-03-29T23:53:18.748Z,992.03
2023-03-29T23:58:18.613Z,992.00
